Marco, Brazil
Current Conditions -  °F | °C
As of 5:00 PM on Friday 21 Nov 2014 (Local Time) from SBPB Reporting Station
Clear Clear  
Wind Chill: 86°   Ceiling: Unl
Heat Index: 93°   Visibility: 6mi
Dew Point: 73°   Wind: 22mph
Humidity: 66%   Direction: 80°E
Pressure: 29.77"   Gusts: NA
Location:  3.12°S, 40.15°W
Report Text: SBPB 212000Z 08019KT CAVOK 30/23 Q1008
Loading
Personal Weather Stations






























Interactive Weather Map New forecast layout! Learn more

10-Day Weather Forecast

Advertisements
Track Severe Weather on mobile